Terminal Aerodrome Forecast
Issued by NWS

Home | Current Version | Previous Version | Text Only | Print | Product List | Glossary Off
Versions: 1 2 3 4 5 6 7 8 9 10 11 12 13 14 15 16 17 18

000
FTUS43 KTOP 170520
TAFMHK
TAF
KMHK 170520Z 1706/1806 04008KT 6SM -TSRA BKN020CB
     FM170900 03008KT P6SM -SHRA BKN025
     FM171100 03007KT P6SM BKN020
     FM171800 08008KT P6SM VCSH BKN030
     FM180000 10005KT P6SM BKN020=

USA.gov is the U.S. government's official web portal to all federal, state and local government web resources and services.